createdAt,value
2023-08-31T00:02:21.132Z,4.63
2023-08-31T00:04:51.992Z,5.97
2023-08-31T00:07:19.602Z,4.57
2023-08-31T00:09:47.184Z,5.68
2023-08-31T00:12:14.714Z,7.45
2023-08-31T00:14:42.250Z,4.32
2023-08-31T00:17:10.020Z,4.55
2023-08-31T00:19:37.632Z,4.20
2023-08-31T00:22:05.365Z,5.45
2023-08-31T00:24:33.120Z,4.57
2023-08-31T00:27:00.814Z,5.85
2023-08-31T00:29:28.495Z,6.45
2023-08-31T00:31:56.046Z,6.38
2023-08-31T00:34:23.635Z,6.25
2023-08-31T00:36:52.191Z,5.32
2023-08-31T00:39:22.072Z,5.43
2023-08-31T00:41:51.219Z,5.72
2023-08-31T00:44:20.277Z,4.90
2023-08-31T00:46:50.144Z,6.68
2023-08-31T00:49:18.559Z,6.22
2023-08-31T00:51:51.633Z,5.45
2023-08-31T00:54:19.823Z,6.00
2023-08-31T00:56:47.465Z,5.85
2023-08-31T00:59:15.690Z,7.13
2023-08-31T01:02:02.702Z,6.85
2023-08-31T01:05:04.885Z,7.38
2023-08-31T01:07:48.745Z,7.35
2023-08-31T01:10:37.804Z,8.30
2023-08-31T01:13:16.917Z,6.93
2023-08-31T01:15:50.240Z,9.10
2023-08-31T01:18:22.752Z,9.77
2023-08-31T01:21:03.464Z,7.72
2023-08-31T01:23:57.179Z,7.45
2023-08-31T01:26:26.670Z,10.40
2023-08-31T01:28:57.027Z,9.93
2023-08-31T01:31:24.655Z,9.52
2023-08-31T01:33:52.444Z,9.32
2023-08-31T01:36:31.803Z,9.32
2023-08-31T01:39:27.340Z,11.00
2023-08-31T01:42:02.014Z,11.02
2023-08-31T01:44:35.026Z,10.98
2023-08-31T01:47:07.116Z,11.05
2023-08-31T01:49:41.297Z,8.98
2023-08-31T01:52:08.992Z,11.02
2023-08-31T01:54:38.621Z,10.63
2023-08-31T01:57:07.363Z,12.93
2023-08-31T01:59:44.962Z,11.90
2023-08-31T02:02:12.626Z,11.27
2023-08-31T02:04:40.188Z,10.45
2023-08-31T02:07:07.695Z,13.13
2023-08-31T02:09:35.609Z,13.00
2023-08-31T02:12:06.277Z,10.55
2023-08-31T02:14:34.392Z,11.68
2023-08-31T02:17:02.004Z,11.88
2023-08-31T02:19:29.575Z,15.93
2023-08-31T02:21:57.192Z,11.07
2023-08-31T02:24:24.698Z,10.43
2023-08-31T02:26:53.724Z,12.45
2023-08-31T02:29:21.274Z,11.63
2023-08-31T02:31:48.940Z,10.25
2023-08-31T02:34:16.437Z,10.60
2023-08-31T02:36:43.998Z,12.10
2023-08-31T02:39:11.763Z,10.90
2023-08-31T02:41:39.329Z,11.25
2023-08-31T02:44:06.922Z,13.38
2023-08-31T02:46:34.579Z,11.43
2023-08-31T02:49:02.145Z,12.27
2023-08-31T02:51:29.696Z,10.48
2023-08-31T02:53:57.369Z,13.38
2023-08-31T02:56:25.069Z,10.63
2023-08-31T02:58:52.877Z,11.05
2023-08-31T03:01:20.440Z,10.45
2023-08-31T03:03:51.196Z,12.57
2023-08-31T03:06:18.733Z,13.18
2023-08-31T03:08:46.444Z,11.63
2023-08-31T03:11:15.747Z,11.82
2023-08-31T03:13:43.316Z,11.90
2023-08-31T03:16:10.972Z,11.35
2023-08-31T03:18:38.564Z,10.88
2023-08-31T03:21:06.127Z,13.02
2023-08-31T03:23:33.757Z,12.18
2023-08-31T03:26:07.271Z,12.45
2023-08-31T03:28:35.144Z,12.50
2023-08-31T03:31:03.010Z,13.45
2023-08-31T03:33:30.570Z,12.35
2023-08-31T03:36:05.893Z,11.07
2023-08-31T03:38:38.929Z,11.45
2023-08-31T03:41:07.377Z,13.65
2023-08-31T03:43:36.090Z,12.70
2023-08-31T03:46:03.767Z,12.98
2023-08-31T03:48:31.394Z,12.43
2023-08-31T03:50:59.035Z,13.15
2023-08-31T03:53:26.738Z,12.32
2023-08-31T03:58:26.314Z,13.98
2023-08-31T04:00:55.595Z,13.48
2023-08-31T04:03:25.190Z,12.07
2023-08-31T04:05:56.985Z,12.27
2023-08-31T04:08:24.539Z,15.27
2023-08-31T04:10:52.155Z,12.45
2023-08-31T04:13:19.771Z,12.75
2023-08-31T04:15:48.133Z,17.30
2023-08-31T04:18:16.681Z,14.32
2023-08-31T04:20:54.914Z,15.07
2023-08-31T04:23:22.495Z,15.25
2023-08-31T04:25:52.566Z,15.73
2023-08-31T04:28:20.282Z,14.07
2023-08-31T04:30:47.765Z,14.60
2023-08-31T04:33:15.477Z,15.70
2023-08-31T04:35:43.486Z,18.52
2023-08-31T04:38:12.314Z,14.38
2023-08-31T04:40:40.002Z,14.95
2023-08-31T04:43:07.497Z,14.70
2023-08-31T04:45:35.069Z,13.32
2023-08-31T04:48:02.659Z,13.73
2023-08-31T04:50:30.432Z,13.63
2023-08-31T04:52:57.969Z,15.07
2023-08-31T04:55:26.473Z,16.17
2023-08-31T04:57:54.031Z,14.18
2023-08-31T05:00:21.665Z,15.15
2023-08-31T05:02:49.251Z,18.33
2023-08-31T05:05:16.936Z,13.55
2023-08-31T05:07:44.517Z,19.02
2023-08-31T05:10:12.573Z,15.60
2023-08-31T05:12:40.426Z,15.32
2023-08-31T05:15:09.108Z,16.75
2023-08-31T05:17:36.826Z,20.00
2023-08-31T05:20:05.821Z,17.10
2023-08-31T05:22:33.331Z,15.98
2023-08-31T05:25:01.772Z,13.63
2023-08-31T05:27:29.336Z,16.75
2023-08-31T05:29:56.887Z,15.00
2023-08-31T05:32:24.658Z,16.48
2023-08-31T05:34:52.172Z,15.15
2023-08-31T05:37:19.780Z,18.98
2023-08-31T05:39:50.929Z,24.60
2023-08-31T05:42:19.285Z,17.30
2023-08-31T05:44:46.879Z,16.35
2023-08-31T05:47:14.450Z,13.60
2023-08-31T05:49:41.959Z,14.27
2023-08-31T05:52:09.754Z,14.68
2023-08-31T05:54:37.300Z,13.30
2023-08-31T05:57:06.710Z,12.23
2023-08-31T05:59:34.275Z,11.75
2023-08-31T06:02:05.667Z,12.13
2023-08-31T06:04:33.458Z,11.25
2023-08-31T06:07:00.979Z,13.07
2023-08-31T06:09:28.618Z,11.57
2023-08-31T06:11:56.205Z,12.07
2023-08-31T06:14:23.721Z,13.57
2023-08-31T06:16:51.347Z,11.60
2023-08-31T06:19:18.827Z,11.57
2023-08-31T06:21:46.344Z,12.27
2023-08-31T06:24:14.237Z,11.70
2023-08-31T06:26:42.443Z,13.05
2023-08-31T06:29:11.808Z,11.93
2023-08-31T06:31:39.461Z,12.05
2023-08-31T06:34:07.027Z,13.73
2023-08-31T06:36:36.792Z,9.32
2023-08-31T06:39:05.742Z,10.25
2023-08-31T06:41:33.400Z,9.38
2023-08-31T06:44:01.130Z,8.50
2023-08-31T06:46:29.739Z,10.63
2023-08-31T06:48:57.317Z,10.52
2023-08-31T06:51:25.634Z,11.05
2023-08-31T06:53:53.362Z,9.25
2023-08-31T06:56:21.104Z,9.00
2023-08-31T06:58:48.636Z,9.30
2023-08-31T07:01:16.172Z,9.07
2023-08-31T07:03:43.892Z,9.18
2023-08-31T07:06:12.388Z,10.18
2023-08-31T07:08:41.836Z,9.82
2023-08-31T07:11:09.436Z,11.60
2023-08-31T07:13:36.988Z,10.27
2023-08-31T07:16:05.583Z,9.50
2023-08-31T07:18:33.393Z,9.68
2023-08-31T07:21:00.995Z,9.30
2023-08-31T07:23:28.847Z,10.02
2023-08-31T07:26:01.130Z,9.35
2023-08-31T07:28:28.794Z,10.90
2023-08-31T07:31:07.626Z,9.40
2023-08-31T07:33:37.095Z,9.70
2023-08-31T07:36:07.331Z,8.02
2023-08-31T07:38:35.226Z,7.80
2023-08-31T07:41:02.872Z,9.00
2023-08-31T07:43:30.964Z,8.63
2023-08-31T07:45:58.574Z,8.23
2023-08-31T07:48:26.186Z,10.43
2023-08-31T07:50:53.745Z,8.35
2023-08-31T07:53:21.412Z,7.63
2023-08-31T07:55:55.302Z,9.70
2023-08-31T07:58:24.451Z,7.05
2023-08-31T08:00:56.980Z,7.28
2023-08-31T08:03:24.988Z,7.53
2023-08-31T08:05:53.064Z,10.05
2023-08-31T08:08:20.831Z,8.27
2023-08-31T08:10:54.083Z,6.93
2023-08-31T08:13:21.814Z,8.85
2023-08-31T08:15:50.426Z,7.30
2023-08-31T08:18:17.914Z,6.50
2023-08-31T08:20:49.972Z,7.30
2023-08-31T08:23:17.647Z,6.90
2023-08-31T08:25:45.260Z,10.75
2023-08-31T08:28:12.764Z,9.65
2023-08-31T08:30:40.426Z,6.55
2023-08-31T08:33:10.180Z,9.00
2023-08-31T08:35:39.522Z,7.30
2023-08-31T08:38:07.135Z,8.75
2023-08-31T08:40:36.238Z,10.25
2023-08-31T08:43:09.271Z,7.80
2023-08-31T08:45:42.644Z,6.47
2023-08-31T08:48:10.784Z,6.80
2023-08-31T08:50:38.644Z,6.78
2023-08-31T08:53:07.611Z,6.28
2023-08-31T08:55:35.707Z,8.63
2023-08-31T08:58:04.486Z,9.20
2023-08-31T09:00:33.993Z,6.57
2023-08-31T09:03:04.871Z,7.00
2023-08-31T09:05:35.731Z,7.88
2023-08-31T09:08:13.184Z,8.90
2023-08-31T09:10:44.351Z,6.95
2023-08-31T09:13:16.828Z,6.95
2023-08-31T09:15:47.078Z,5.97
2023-08-31T09:18:17.112Z,7.00
2023-08-31T09:20:48.999Z,7.72
2023-08-31T09:23:18.052Z,8.30
2023-08-31T09:25:54.210Z,7.57
2023-08-31T09:28:30.476Z,7.60
2023-08-31T09:31:09.904Z,5.38
2023-08-31T09:33:38.396Z,5.82
2023-08-31T09:36:09.365Z,3.92
2023-08-31T09:38:44.901Z,5.88
2023-08-31T09:41:13.309Z,5.43
2023-08-31T09:43:40.900Z,7.03
2023-08-31T09:46:10.983Z,5.65
2023-08-31T09:48:41.230Z,4.63
2023-08-31T09:51:11.460Z,5.43
2023-08-31T09:53:39.259Z,4.03
2023-08-31T09:56:08.273Z,4.75
2023-08-31T09:58:36.394Z,3.80
2023-08-31T10:01:10.364Z,6.53
2023-08-31T10:03:41.747Z,5.90
2023-08-31T10:06:11.617Z,4.75
2023-08-31T10:08:40.547Z,3.90
2023-08-31T10:11:11.194Z,6.43
2023-08-31T10:13:42.273Z,5.37
2023-08-31T10:16:12.383Z,5.65
2023-08-31T10:18:40.486Z,3.80
2023-08-31T10:21:08.290Z,4.63
2023-08-31T10:23:39.363Z,4.75
2023-08-31T10:26:07.328Z,5.60
2023-08-31T10:28:42.114Z,5.00
2023-08-31T10:31:21.439Z,6.78
2023-08-31T10:34:04.678Z,6.72
2023-08-31T10:36:45.938Z,5.65
2023-08-31T10:39:19.084Z,6.55
2023-08-31T10:41:57.585Z,4.78
2023-08-31T10:44:28.375Z,4.20
2023-08-31T10:46:56.354Z,5.53
2023-08-31T10:49:26.616Z,6.85
2023-08-31T10:52:19.808Z,6.10
2023-08-31T10:54:57.057Z,8.82
2023-08-31T10:57:34.797Z,4.82
2023-08-31T11:00:03.224Z,5.35
2023-08-31T11:02:34.719Z,5.65
2023-08-31T11:05:17.348Z,4.93
2023-08-31T11:07:50.988Z,5.07
2023-08-31T11:10:22.141Z,5.80
2023-08-31T11:12:53.437Z,4.38
2023-08-31T11:17:53.013Z,4.32
2023-08-31T11:20:29.744Z,5.15
2023-08-31T11:22:58.324Z,4.75
2023-08-31T11:25:26.661Z,7.53
2023-08-31T11:28:01.141Z,5.57
2023-08-31T11:30:32.738Z,6.55
2023-08-31T11:33:06.505Z,5.15
2023-08-31T11:35:38.221Z,5.30
2023-08-31T11:38:07.371Z,6.15
2023-08-31T11:40:35.065Z,6.18
2023-08-31T11:43:05.880Z,4.60
2023-08-31T11:45:34.037Z,5.13
2023-08-31T11:48:02.276Z,4.50
2023-08-31T11:50:30.427Z,5.63
2023-08-31T11:52:58.106Z,4.60
2023-08-31T11:55:25.616Z,6.20
2023-08-31T11:57:58.341Z,5.90
2023-08-31T12:00:26.299Z,5.63
2023-08-31T12:03:00.454Z,6.47
2023-08-31T12:05:29.967Z,5.95
2023-08-31T12:07:58.010Z,5.55
2023-08-31T12:10:27.327Z,6.07
2023-08-31T12:12:56.974Z,4.75
2023-08-31T12:15:32.143Z,6.68
2023-08-31T12:18:09.330Z,6.80
2023-08-31T12:20:47.661Z,9.77
2023-08-31T12:23:18.123Z,7.38
2023-08-31T12:25:52.401Z,5.50
2023-08-31T12:28:22.839Z,6.55
2023-08-31T12:30:55.598Z,4.35
2023-08-31T12:33:23.570Z,6.15
2023-08-31T12:35:51.590Z,6.38
2023-08-31T12:38:20.297Z,5.93
2023-08-31T12:40:47.945Z,6.95
2023-08-31T12:43:17.747Z,8.02
2023-08-31T12:45:46.029Z,6.57
2023-08-31T12:48:14.372Z,7.30
2023-08-31T12:50:42.058Z,6.32
2023-08-31T12:53:09.606Z,6.80
2023-08-31T12:55:37.299Z,6.57
2023-08-31T12:58:05.020Z,7.20
2023-08-31T13:00:32.796Z,6.65
2023-08-31T13:03:02.337Z,6.57
2023-08-31T13:05:30.174Z,7.85
2023-08-31T13:07:57.696Z,10.52
2023-08-31T13:10:25.352Z,8.93
2023-08-31T13:12:52.864Z,6.10
2023-08-31T13:15:20.358Z,6.63
2023-08-31T13:17:47.883Z,6.35
2023-08-31T13:20:15.599Z,8.60
2023-08-31T13:22:43.086Z,9.02
2023-08-31T13:25:12.501Z,7.25
2023-08-31T13:27:40.082Z,8.07
2023-08-31T13:30:10.106Z,7.13
2023-08-31T13:32:37.669Z,9.00
2023-08-31T13:35:09.238Z,7.60
2023-08-31T13:40:08.985Z,6.45
2023-08-31T13:42:39.200Z,7.60
2023-08-31T13:45:09.281Z,7.82
2023-08-31T13:47:36.902Z,7.47
2023-08-31T13:50:05.278Z,7.47
2023-08-31T13:52:32.875Z,8.10
2023-08-31T13:55:00.560Z,5.70
2023-08-31T13:57:28.033Z,8.38
2023-08-31T13:59:55.575Z,6.90
2023-08-31T14:02:23.258Z,7.28
2023-08-31T14:04:50.778Z,6.80
2023-08-31T14:07:18.844Z,7.18
2023-08-31T14:09:46.398Z,9.20
2023-08-31T14:12:13.908Z,7.22
2023-08-31T14:14:42.680Z,7.80
2023-08-31T14:17:10.192Z,7.97
2023-08-31T14:19:38.754Z,6.75
2023-08-31T14:22:06.465Z,6.97
2023-08-31T14:24:34.064Z,8.45
2023-08-31T14:27:01.512Z,6.03
2023-08-31T14:29:29.376Z,7.95
2023-08-31T14:31:56.968Z,6.95
2023-08-31T14:34:26.204Z,7.10
2023-08-31T14:37:02.035Z,6.35
2023-08-31T14:39:32.989Z,7.32
2023-08-31T14:42:00.748Z,5.70
2023-08-31T14:44:28.317Z,5.63
2023-08-31T14:46:57.100Z,6.18
2023-08-31T14:49:26.228Z,5.28
2023-08-31T14:51:53.933Z,5.18
2023-08-31T14:54:21.947Z,5.43
2023-08-31T14:56:55.069Z,4.78
2023-08-31T14:59:22.824Z,5.32
2023-08-31T15:01:50.422Z,4.40
2023-08-31T15:04:18.134Z,4.93
2023-08-31T15:06:45.831Z,7.35
2023-08-31T15:09:13.323Z,4.80
2023-08-31T15:11:41.792Z,5.40
2023-08-31T15:14:09.387Z,5.72
2023-08-31T15:16:38.526Z,7.10
2023-08-31T15:19:06.199Z,5.32
2023-08-31T15:21:34.594Z,8.43
2023-08-31T15:24:03.793Z,7.95
2023-08-31T15:26:31.388Z,6.18
2023-08-31T15:28:58.912Z,8.73
2023-08-31T15:31:27.106Z,6.38
2023-08-31T15:33:54.866Z,8.00
2023-08-31T15:36:22.465Z,7.22
2023-08-31T15:38:50.330Z,6.03
2023-08-31T15:41:17.881Z,6.97
2023-08-31T15:43:45.605Z,7.68
2023-08-31T15:46:13.249Z,7.88
2023-08-31T15:48:40.998Z,5.88
2023-08-31T15:51:08.601Z,6.75
2023-08-31T15:53:37.293Z,7.10
2023-08-31T15:56:05.911Z,6.13
2023-08-31T15:58:33.550Z,5.60
2023-08-31T16:01:04.146Z,7.63
2023-08-31T16:03:33.278Z,7.50
2023-08-31T16:06:01.556Z,6.45
2023-08-31T16:08:29.839Z,6.80
2023-08-31T16:10:58.523Z,6.90
2023-08-31T16:13:26.252Z,7.93
2023-08-31T16:15:54.017Z,7.20
2023-08-31T16:18:21.569Z,8.55
2023-08-31T16:20:49.132Z,7.20
2023-08-31T16:23:16.658Z,6.78
2023-08-31T16:25:44.270Z,7.13
2023-08-31T16:28:12.388Z,7.57
2023-08-31T16:30:40.607Z,9.15
2023-08-31T16:33:08.278Z,7.70
2023-08-31T16:35:36.081Z,6.57
2023-08-31T16:38:04.856Z,8.05
2023-08-31T16:40:33.495Z,8.05
2023-08-31T16:43:01.001Z,7.57
2023-08-31T16:45:29.734Z,6.60
2023-08-31T16:47:57.398Z,7.03
2023-08-31T16:50:33.738Z,6.65
2023-08-31T16:53:02.294Z,8.48
2023-08-31T16:55:31.277Z,11.05
2023-08-31T16:57:59.999Z,7.63
2023-08-31T17:00:27.576Z,5.90
2023-08-31T17:02:55.209Z,7.47
2023-08-31T17:05:23.094Z,6.18
2023-08-31T17:07:50.803Z,9.23
2023-08-31T17:10:18.614Z,10.70
2023-08-31T17:12:46.196Z,6.68
2023-08-31T17:15:13.958Z,7.13
2023-08-31T17:17:45.674Z,8.38
2023-08-31T17:20:19.528Z,10.05
2023-08-31T17:22:47.750Z,10.25
2023-08-31T17:25:15.409Z,7.85
2023-08-31T17:27:43.115Z,9.25
2023-08-31T17:30:10.927Z,10.32
2023-08-31T17:32:38.983Z,9.65
2023-08-31T17:35:08.170Z,8.82
2023-08-31T17:37:37.051Z,8.80
2023-08-31T17:40:08.688Z,7.72
2023-08-31T17:42:38.248Z,9.35
2023-08-31T17:45:06.267Z,8.57
2023-08-31T17:47:34.035Z,8.43
2023-08-31T17:50:02.144Z,8.88
2023-08-31T17:52:29.937Z,9.70
2023-08-31T17:54:57.738Z,10.23
2023-08-31T17:57:29.472Z,7.35
2023-08-31T17:59:57.428Z,9.15
2023-08-31T18:02:25.131Z,9.82
2023-08-31T18:04:52.828Z,7.40
2023-08-31T18:07:20.362Z,7.82
2023-08-31T18:09:47.931Z,8.50
2023-08-31T18:12:15.565Z,8.52
2023-08-31T18:14:44.741Z,8.55
2023-08-31T18:17:12.779Z,7.90
2023-08-31T18:19:40.508Z,8.48
2023-08-31T18:22:08.085Z,7.75
2023-08-31T18:24:38.243Z,7.90
2023-08-31T18:27:11.074Z,9.35
2023-08-31T18:29:38.733Z,9.55
2023-08-31T18:32:06.864Z,9.32
2023-08-31T18:35:03.988Z,10.73
2023-08-31T18:37:31.471Z,7.38
2023-08-31T18:39:59.201Z,9.82
2023-08-31T18:42:28.749Z,8.15
2023-08-31T18:44:56.397Z,8.45
2023-08-31T18:47:23.984Z,10.95
2023-08-31T18:49:51.596Z,8.32
2023-08-31T18:52:19.127Z,9.43
2023-08-31T18:54:47.949Z,8.75
2023-08-31T18:57:15.512Z,9.88
2023-08-31T18:59:43.112Z,10.35
2023-08-31T19:02:10.738Z,9.45
2023-08-31T19:04:38.250Z,10.48
2023-08-31T19:07:05.830Z,10.25
2023-08-31T19:09:33.342Z,10.00
2023-08-31T19:12:01.046Z,10.98
2023-08-31T19:14:28.529Z,10.07
2023-08-31T19:16:56.204Z,11.70
2023-08-31T19:19:23.800Z,11.40
2023-08-31T19:21:51.347Z,8.82
2023-08-31T19:24:18.890Z,9.82
2023-08-31T19:26:46.478Z,10.40
2023-08-31T19:29:13.964Z,11.25
2023-08-31T19:31:41.595Z,8.80
2023-08-31T19:34:09.128Z,9.10
2023-08-31T19:36:36.712Z,9.43
2023-08-31T19:39:04.466Z,8.25
2023-08-31T19:41:32.498Z,10.25
2023-08-31T19:44:00.102Z,9.48
2023-08-31T19:46:27.605Z,9.60
2023-08-31T19:48:55.808Z,9.15
2023-08-31T19:51:23.454Z,8.35
2023-08-31T19:53:51.009Z,9.05
2023-08-31T19:56:19.507Z,10.80
2023-08-31T19:58:46.975Z,7.72
2023-08-31T20:01:15.559Z,9.82
2023-08-31T20:03:43.099Z,8.35
2023-08-31T20:06:10.617Z,11.45
2023-08-31T20:08:39.116Z,8.75
2023-08-31T20:11:06.801Z,8.55
2023-08-31T20:13:34.352Z,6.93
2023-08-31T20:16:05.903Z,8.25
2023-08-31T20:21:00.880Z,9.18
2023-08-31T20:23:28.433Z,6.90
2023-08-31T20:25:56.747Z,9.13
2023-08-31T20:28:25.476Z,9.02
2023-08-31T20:30:52.999Z,7.15
2023-08-31T20:33:20.770Z,9.48
2023-08-31T20:35:49.136Z,12.02
2023-08-31T20:38:16.930Z,9.15
2023-08-31T20:40:45.229Z,8.88
2023-08-31T20:43:12.775Z,7.78
2023-08-31T20:45:40.395Z,8.18
2023-08-31T20:48:10.835Z,7.75
2023-08-31T20:50:38.733Z,9.07
2023-08-31T20:53:06.476Z,11.88
2023-08-31T20:55:34.176Z,8.35
2023-08-31T20:58:01.777Z,9.70
2023-08-31T21:00:29.462Z,10.00
2023-08-31T21:02:57.092Z,10.15
2023-08-31T21:05:24.645Z,7.15
2023-08-31T21:07:52.189Z,9.73
2023-08-31T21:10:20.872Z,6.88
2023-08-31T21:12:48.383Z,8.98
2023-08-31T21:15:15.954Z,11.73
2023-08-31T21:17:43.621Z,8.07
2023-08-31T21:20:11.613Z,8.95
2023-08-31T21:22:39.235Z,10.43
2023-08-31T21:25:07.848Z,8.07
2023-08-31T21:27:35.390Z,8.85
2023-08-31T21:30:03.156Z,7.28
2023-08-31T21:32:30.803Z,7.78
2023-08-31T21:34:58.415Z,7.38
2023-08-31T21:37:25.921Z,11.88
2023-08-31T21:39:54.058Z,10.43
2023-08-31T21:42:21.530Z,7.18
2023-08-31T21:44:49.061Z,7.15
2023-08-31T21:47:16.675Z,8.73
2023-08-31T21:49:44.580Z,8.27
2023-08-31T21:52:12.167Z,8.88
2023-08-31T21:54:39.735Z,7.22
2023-08-31T21:57:07.414Z,8.25
2023-08-31T21:59:35.089Z,7.95
2023-08-31T22:02:02.739Z,9.90
2023-08-31T22:04:31.096Z,8.40
2023-08-31T22:06:58.707Z,7.43
2023-08-31T22:09:27.118Z,7.60
2023-08-31T22:11:54.676Z,13.35
2023-08-31T22:14:22.265Z,7.70
2023-08-31T22:16:49.822Z,8.68
2023-08-31T22:19:17.477Z,9.23
2023-08-31T22:21:45.208Z,9.65
2023-08-31T22:24:12.735Z,9.10
2023-08-31T22:26:40.293Z,8.40
2023-08-31T22:29:08.129Z,8.82
2023-08-31T22:31:35.767Z,10.95
2023-08-31T22:34:03.892Z,10.18
2023-08-31T22:36:31.500Z,8.57
2023-08-31T22:38:59.992Z,8.50
2023-08-31T22:41:27.790Z,9.00
2023-08-31T22:43:56.248Z,9.27
2023-08-31T22:46:23.761Z,8.73
2023-08-31T22:48:51.332Z,9.57
2023-08-31T22:51:18.846Z,8.90
2023-08-31T22:53:46.387Z,9.30
2023-08-31T22:56:14.132Z,8.57
2023-08-31T22:58:41.712Z,10.93
2023-08-31T23:01:09.282Z,9.07
2023-08-31T23:03:36.974Z,8.82
2023-08-31T23:06:04.602Z,9.82
2023-08-31T23:08:32.119Z,8.13
2023-08-31T23:11:01.400Z,8.73
2023-08-31T23:13:29.182Z,6.57
2023-08-31T23:15:56.965Z,9.07
2023-08-31T23:18:25.093Z,9.80
2023-08-31T23:20:52.584Z,9.13
2023-08-31T23:23:22.120Z,14.02
2023-08-31T23:25:49.702Z,6.82
2023-08-31T23:28:17.243Z,10.10
2023-08-31T23:30:44.752Z,8.50
2023-08-31T23:33:12.548Z,7.70
2023-08-31T23:35:40.342Z,6.82
2023-08-31T23:38:08.531Z,8.68
2023-08-31T23:40:36.504Z,9.48
2023-08-31T23:43:04.607Z,8.82
2023-08-31T23:45:32.648Z,8.18
2023-08-31T23:48:00.397Z,9.75
2023-08-31T23:50:28.404Z,9.32
2023-08-31T23:52:55.953Z,8.93
2023-08-31T23:55:23.421Z,8.60
2023-08-31T23:57:51.063Z,9.27
